Time;durP1;ratioP1;P1;durP2;ratioP2;P2;SDS_P1;SDS_P2;PMS_P1;PMS_P2;Temp;Humidity;BMP_temperature;BMP_pressure;BME280_temperature;BME280_humidity;BME280_pressure;Samples;Min_cycle;Max_cycle;Signal;HPM_P1;HPM_P2
2022/03/15 00:01:30;;;;;;;29.65;17.55;;;;;;;9.60;54.07;103311.47;5071934;28;20044;-62
2022/03/15 00:03:56;;;;;;;29.42;15.75;;;;;;;9.60;54.36;103307.09;5071233;28;20041;-62
2022/03/15 00:06:23;;;;;;;30.90;16.90;;;;;;;9.61;54.42;103308.84;5071699;28;20090;-61
2022/03/15 00:08:50;;;;;;;34.92;20.67;;;;;;;9.61;54.50;103303.59;5071797;28;20048;-63
2022/03/15 00:11:17;;;;;;;27.08;18.60;;;;;;;9.62;54.70;103297.47;5069578;28;20045;-62
2022/03/15 00:13:45;;;;;;;37.10;24.30;;;;;;;9.64;54.63;103297.44;5070686;28;20106;-63
2022/03/15 00:16:11;;;;;;;25.05;19.85;;;;;;;9.62;54.62;103289.59;5071061;28;20052;-63
2022/03/15 00:18:39;;;;;;;26.40;18.10;;;;;;;9.65;54.60;103288.69;5052366;28;20052;-63
2022/03/15 00:21:10;;;;;;;25.23;18.30;;;;;;;9.67;54.56;103288.69;5054924;28;20049;-62
2022/03/15 00:23:38;;;;;;;25.10;18.48;;;;;;;9.67;54.79;103291.31;5054585;28;20413;-64
2022/03/15 00:26:05;;;;;;;26.73;19.77;;;;;;;9.70;54.61;103288.63;5064002;28;20052;-63
2022/03/15 00:28:32;;;;;;;26.60;18.52;;;;;;;9.71;54.59;103295.63;5073654;28;20086;-62
2022/03/15 00:30:59;;;;;;;27.15;18.98;;;;;;;9.72;54.52;103295.59;5074338;28;20114;-64
2022/03/15 00:33:26;;;;;;;27.40;18.17;;;;;;;9.73;54.48;103301.72;5074682;28;20056;-62
2022/03/15 00:35:56;;;;;;;26.38;16.83;;;;;;;9.70;54.43;103292.13;5074451;28;20050;-62
2022/03/15 00:38:22;;;;;;;23.45;17.13;;;;;;;9.70;54.67;103289.50;5074456;28;20416;-62
2022/03/15 00:40:49;;;;;;;22.55;16.88;;;;;;;9.68;54.57;103291.28;5074388;28;20064;-62
2022/03/15 00:43:16;;;;;;;25.38;17.98;;;;;;;9.67;54.51;103286.06;5074489;28;20607;-63
2022/03/15 00:45:43;;;;;;;27.27;18.98;;;;;;;9.68;54.61;103272.91;5073199;28;20106;-62
2022/03/15 00:48:09;;;;;;;29.13;19.33;;;;;;;9.69;54.81;103285.16;5074215;28;20098;-62
2022/03/15 00:50:41;;;;;;;26.55;19.27;;;;;;;9.70;54.51;103283.38;5074337;28;20044;-62
2022/03/15 00:53:09;;;;;;;24.60;18.88;;;;;;;9.72;54.49;103265.88;5074170;28;20048;-63
2022/03/15 00:55:37;;;;;;;26.48;18.98;;;;;;;9.70;54.31;103271.16;5074217;28;20044;-62
2022/03/15 00:58:05;;;;;;;24.00;17.58;;;;;;;9.70;54.37;103267.66;5072987;28;20052;-62
2022/03/15 01:00:32;;;;;;;24.80;19.02;;;;;;;9.69;54.38;103264.19;5073934;28;20084;-63
2022/03/15 01:02:59;;;;;;;28.08;18.58;;;;;;;9.70;54.29;103257.16;5072909;28;20037;-63
2022/03/15 01:05:26;;;;;;;29.00;20.48;;;;;;;9.69;54.40;103253.69;5074017;28;20040;-62
2022/03/15 01:07:53;;;;;;;22.85;17.10;;;;;;;9.68;54.38;103262.44;5073883;28;20048;-62
2022/03/15 01:10:20;;;;;;;27.73;18.95;;;;;;;9.67;54.47;103254.59;5073779;28;20056;-62
2022/03/15 01:12:47;;;;;;;28.20;18.85;;;;;;;9.66;54.56;103255.47;5073821;28;20396;-63
2022/03/15 01:15:14;;;;;;;30.38;19.33;;;;;;;9.64;54.58;103266.84;5073885;28;20044;-62
2022/03/15 01:17:41;;;;;;;26.48;17.90;;;;;;;9.58;54.63;103269.53;5073483;28;20071;-64
2022/03/15 01:20:09;;;;;;;31.80;19.15;;;;;;;9.54;54.79;103269.59;5073672;28;20057;-64
2022/03/15 01:22:35;;;;;;;28.27;18.15;;;;;;;9.51;54.84;103265.28;5072559;28;20044;-63
2022/03/15 01:25:02;;;;;;;27.80;18.50;;;;;;;9.47;54.78;103248.69;5073558;28;20125;-62
2022/03/15 01:27:29;;;;;;;26.70;17.65;;;;;;;9.48;54.68;103252.19;5073250;28;20447;-63
2022/03/15 01:29:57;;;;;;;28.65;18.63;;;;;;;9.43;54.89;103252.25;5073209;28;20094;-62
2022/03/15 01:32:24;;;;;;;26.23;18.08;;;;;;;9.41;54.89;103259.25;5073465;28;20531;-62
2022/03/15 01:34:52;;;;;;;27.52;18.50;;;;;;;9.37;54.95;103260.19;5072845;28;20044;-62
2022/03/15 01:37:19;;;;;;;26.73;18.75;;;;;;;9.32;55.25;103262.84;5070101;28;20052;-62
2022/03/15 01:39:46;;;;;;;27.30;18.67;;;;;;;9.30;55.03;103253.25;5073153;28;20087;-63
2022/03/15 01:42:12;;;;;;;27.58;19.48;;;;;;;9.28;55.00;103257.63;5073249;28;20048;-63
2022/03/15 01:44:45;;;;;;;25.23;19.10;;;;;;;9.27;55.03;103258.53;5073091;28;20473;-64
2022/03/15 01:47:13;;;;;;;24.35;18.05;;;;;;;9.23;54.87;103260.31;5073154;28;20056;-62
2022/03/15 01:49:40;;;;;;;28.88;19.45;;;;;;;9.20;55.28;103262.97;5072948;28;20059;-63
2022/03/15 01:52:10;;;;;;;27.50;19.50;;;;;;;9.17;55.18;103260.38;5073031;28;20048;-62
2022/03/15 01:54:37;;;;;;;28.27;19.98;;;;;;;9.16;55.09;103256.03;5072039;28;20044;-63
2022/03/15 01:57:07;;;;;;;25.00;18.45;;;;;;;9.16;55.11;103258.63;5073094;28;20048;-62
2022/03/15 01:59:35;;;;;;;29.80;20.23;;;;;;;9.15;55.07;103256.91;5073130;28;20041;-62
2022/03/15 02:02:03;;;;;;;28.90;19.92;;;;;;;9.13;55.14;103253.44;5072847;28;20562;-64
2022/03/15 02:04:32;;;;;;;29.52;19.52;;;;;;;9.11;55.46;103258.69;5072641;28;20045;-62
2022/03/15 02:07:09;;;;;;;26.15;19.30;;;;;;;9.07;55.40;103256.97;5072773;28;20048;-64
2022/03/15 02:09:36;;;;;;;26.35;18.48;;;;;;;9.06;55.33;103252.63;5072668;28;20071;-62
2022/03/15 02:12:03;;;;;;;26.45;18.58;;;;;;;9.05;55.40;103255.25;5071913;28;20044;-62
2022/03/15 02:14:30;;;;;;;28.02;18.83;;;;;;;9.04;55.47;103253.50;5072764;28;20159;-62
2022/03/15 02:16:57;;;;;;;26.80;19.63;;;;;;;9.02;55.43;103250.06;5072485;28;20045;-62
2022/03/15 02:19:24;;;;;;;27.45;19.55;;;;;;;9.00;55.55;103250.06;5072526;28;20555;-63
2022/03/15 02:21:51;;;;;;;29.33;19.42;;;;;;;8.99;55.50;103249.19;5072510;28;20048;-63
2022/03/15 02:24:18;;;;;;;25.92;19.60;;;;;;;8.96;55.37;103241.38;5072813;28;20044;-62
2022/03/15 02:26:45;;;;;;;25.42;18.73;;;;;;;8.96;55.28;103241.38;5071396;28;20102;-62
2022/03/15 02:29:11;;;;;;;29.02;20.02;;;;;;;8.94;55.21;103230.03;5072594;28;20064;-64
2022/03/15 02:31:38;;;;;;;26.08;18.95;;;;;;;8.94;55.28;103227.44;5071710;28;20076;-62
2022/03/15 02:34:05;;;;;;;28.48;19.50;;;;;;;8.91;55.32;103237.06;5072082;28;20044;-63
2022/03/15 02:36:32;;;;;;;27.30;18.42;;;;;;;8.83;55.50;103240.59;5072483;28;20051;-63
2022/03/15 02:38:59;;;;;;;29.55;19.45;;;;;;;8.85;55.58;103238.00;5072284;28;20052;-63
2022/03/15 02:41:26;;;;;;;27.85;18.75;;;;;;;8.82;55.51;103235.38;5072544;28;20044;-62
2022/03/15 02:43:56;;;;;;;29.40;19.75;;;;;;;8.80;55.54;103234.56;5071411;28;20049;-62
2022/03/15 02:46:30;;;;;;;29.25;19.80;;;;;;;8.77;55.50;103230.22;5072435;28;20048;-62
2022/03/15 02:48:57;;;;;;;26.98;18.67;;;;;;;8.74;55.39;103232.84;5072419;28;20832;-62
2022/03/15 02:51:25;;;;;;;24.77;18.67;;;;;;;8.72;55.30;103231.13;5072245;28;20087;-62
2022/03/15 02:53:53;;;;;;;30.20;19.60;;;;;;;8.68;55.35;103232.03;5072188;28;20045;-62
2022/03/15 02:56:19;;;;;;;29.63;19.75;;;;;;;8.66;55.37;103221.59;5072175;28;20459;-62
2022/03/15 02:58:46;;;;;;;28.73;19.35;;;;;;;8.66;55.27;103227.66;5071934;28;20053;-62
2022/03/15 03:01:13;;;;;;;25.58;18.60;;;;;;;8.64;55.36;103224.19;5071336;28;20044;-64
2022/03/15 03:03:41;;;;;;;28.48;20.05;;;;;;;8.65;55.35;103222.47;5072170;28;20114;-62
2022/03/15 03:06:08;;;;;;;28.98;20.17;;;;;;;8.64;55.51;103233.81;5072044;28;20098;-62
2022/03/15 03:08:35;;;;;;;23.42;18.10;;;;;;;8.63;55.46;103222.47;5072227;28;20045;-64
2022/03/15 03:11:02;;;;;;;25.27;18.13;;;;;;;8.64;55.53;103231.19;5071916;28;20059;-63
2022/03/15 03:13:30;;;;;;;28.58;19.50;;;;;;;8.63;55.36;103230.31;5071970;28;20456;-64
2022/03/15 03:15:59;;;;;;;32.25;19.90;;;;;;;8.64;55.51;103225.94;5070920;28;20044;-62
2022/03/15 03:18:32;;;;;;;28.58;19.40;;;;;;;8.64;55.44;103236.41;5051852;28;20049;-62
2022/03/15 03:21:04;;;;;;;27.60;19.65;;;;;;;8.62;55.48;103228.59;5052392;28;20056;-62
2022/03/15 03:23:32;;;;;;;25.15;18.70;;;;;;;8.62;55.50;103225.97;5055879;28;20045;-62
2022/03/15 03:25:59;;;;;;;25.27;19.20;;;;;;;8.62;55.64;103225.97;5055793;28;20053;-62
2022/03/15 03:28:33;;;;;;;24.30;17.73;;;;;;;8.59;55.93;103220.75;5055819;28;20452;-62
2022/03/15 03:31:00;;;;;;;29.75;19.05;;;;;;;8.60;55.60;103227.72;5055489;28;20052;-64
2022/03/15 03:33:27;;;;;;;23.30;17.63;;;;;;;8.57;55.68;103217.28;5055785;28;20469;-62
2022/03/15 03:35:53;;;;;;;29.02;19.80;;;;;;;8.53;55.85;103210.31;5073703;28;20045;-63
2022/03/15 03:38:20;;;;;;;27.20;18.20;;;;;;;8.54;55.98;103209.44;5075587;28;20504;-62
2022/03/15 03:40:46;;;;;;;26.10;19.48;;;;;;;8.56;55.72;103209.44;5075673;28;20109;-62
2022/03/15 03:43:13;;;;;;;26.23;19.00;;;;;;;8.54;56.04;103203.34;5075526;28;20058;-62
2022/03/15 03:45:40;;;;;;;27.70;19.95;;;;;;;8.55;55.87;103200.72;5075293;28;20051;-64
2022/03/15 03:48:07;;;;;;;25.98;19.25;;;;;;;8.55;56.03;103208.56;5075475;28;20045;-65
2022/03/15 03:50:35;;;;;;;28.77;19.27;;;;;;;8.52;56.05;103205.09;5074496;28;20064;-62
2022/03/15 03:53:03;;;;;;;26.15;18.75;;;;;;;8.51;56.16;103209.47;5075272;28;20045;-62
2022/03/15 03:55:31;;;;;;;28.63;20.02;;;;;;;8.54;56.22;103208.59;5075318;28;20085;-62
2022/03/15 03:57:57;;;;;;;26.35;18.85;;;;;;;8.54;56.34;103206.81;5075288;28;20075;-64
2022/03/15 04:00:24;;;;;;;28.33;19.75;;;;;;;8.56;56.48;103206.81;5075120;28;20054;-61
2022/03/15 04:02:53;;;;;;;26.08;18.70;;;;;;;8.57;56.39;103203.31;5071675;28;20219;-63
2022/03/15 04:05:20;;;;;;;24.25;18.23;;;;;;;8.56;56.64;103204.19;5070909;28;20057;-62
2022/03/15 04:07:47;;;;;;;29.67;19.50;;;;;;;8.57;56.73;103205.94;5070696;28;20044;-62
2022/03/15 04:10:15;;;;;;;28.33;18.77;;;;;;;8.57;56.77;103200.69;5071516;28;20052;-64
2022/03/15 04:12:42;;;;;;;25.58;18.67;;;;;;;8.55;56.75;103207.72;5071644;28;20048;-62
2022/03/15 04:15:09;;;;;;;29.83;20.20;;;;;;;8.53;56.98;103214.69;5071568;28;20106;-62
2022/03/15 04:17:36;;;;;;;31.20;19.23;;;;;;;8.52;57.11;103211.22;5071439;28;20040;-63
2022/03/15 04:20:03;;;;;;;33.63;21.73;;;;;;;8.53;57.25;103212.94;5071553;28;20476;-62
2022/03/15 04:22:30;;;;;;;34.25;20.30;;;;;;;8.53;57.24;103210.31;5070692;28;20489;-63
2022/03/15 04:24:56;;;;;;;40.47;21.75;;;;;;;8.52;57.26;103212.97;5071331;28;20048;-62
2022/03/15 04:27:23;;;;;;;35.70;19.92;;;;;;;8.49;57.47;103209.50;5070685;28;20048;-62
2022/03/15 04:29:50;;;;;;;28.90;20.13;;;;;;;8.50;57.53;103216.44;5071398;28;20068;-62
2022/03/15 04:32:18;;;;;;;28.50;20.45;;;;;;;8.50;57.49;103208.59;5071140;28;20059;-62
2022/03/15 04:34:44;;;;;;;25.90;19.95;;;;;;;8.50;57.64;103208.59;5071145;28;20044;-62
2022/03/15 04:37:11;;;;;;;29.45;20.48;;;;;;;8.53;57.55;103217.31;5070294;28;20109;-62
2022/03/15 04:39:38;;;;;;;31.63;20.73;;;;;;;8.52;57.59;103213.84;5070978;28;20797;-63
2022/03/15 04:42:05;;;;;;;28.25;20.58;;;;;;;8.51;57.78;103219.94;5071250;28;20051;-63
2022/03/15 04:44:32;;;;;;;28.65;19.58;;;;;;;8.53;57.90;103212.09;5070944;28;20131;-62
2022/03/15 04:46:59;;;;;;;30.25;21.00;;;;;;;8.53;57.97;103206.84;5070877;28;20489;-62
2022/03/15 04:49:26;;;;;;;28.17;20.70;;;;;;;8.55;57.92;103205.09;5071142;28;20416;-62
2022/03/15 04:51:53;;;;;;;29.17;20.00;;;;;;;8.57;58.08;103205.94;5070971;28;20049;-62
2022/03/15 04:54:20;;;;;;;26.83;19.67;;;;;;;8.59;58.03;103212.91;5070545;28;20049;-62
2022/03/15 04:56:46;;;;;;;29.08;20.48;;;;;;;8.58;57.74;103203.34;5070758;28;20098;-62
2022/03/15 04:59:13;;;;;;;28.42;19.80;;;;;;;8.62;58.02;103207.66;5070887;28;20048;-63
2022/03/15 05:01:39;;;;;;;30.23;20.75;;;;;;;8.63;57.68;103206.78;5070431;28;20048;-62
2022/03/15 05:04:06;;;;;;;28.50;20.63;;;;;;;8.63;57.79;103203.28;5070540;28;20047;-62
2022/03/15 05:06:33;;;;;;;28.10;22.02;;;;;;;8.62;57.85;103209.38;5070739;28;20048;-63
2022/03/15 05:09:00;;;;;;;29.77;20.23;;;;;;;8.63;57.70;103216.34;5070277;28;20049;-63
2022/03/15 05:11:27;;;;;;;30.10;21.17;;;;;;;8.64;57.72;103218.09;5069494;28;20052;-64
2022/03/15 05:13:55;;;;;;;31.67;21.65;;;;;;;8.62;57.62;103218.13;5070279;28;20642;-62
2022/03/15 05:16:22;;;;;;;29.10;20.13;;;;;;;8.64;57.53;103220.72;5070374;28;20052;-62
2022/03/15 05:18:52;;;;;;;31.73;22.45;;;;;;;8.64;57.48;103212.88;5070264;28;20076;-63
2022/03/15 05:21:23;;;;;;;33.25;23.48;;;;;;;8.64;57.37;103211.09;5070252;28;20044;-63
2022/03/15 05:23:50;;;;;;;34.97;23.85;;;;;;;8.64;57.40;103216.34;5070448;28;20076;-62
2022/03/15 05:26:17;;;;;;;39.42;25.20;;;;;;;8.63;57.38;103217.25;5070189;28;20044;-63
2022/03/15 05:28:45;;;;;;;66.45;40.75;;;;;;;8.65;57.44;103222.47;5069217;28;20052;-62
2022/03/15 05:31:12;;;;;;;46.85;30.25;;;;;;;8.64;57.23;103218.94;5070061;28;20103;-62
2022/03/15 05:36:48;;;;;;;35.17;21.63;;;;;;;8.67;57.14;103228.53;4984729;28;20060;-62
2022/03/15 05:39:15;;;;;;;32.13;21.65;;;;;;;8.68;57.04;103229.41;5030222;28;20103;-62
2022/03/15 05:41:41;;;;;;;29.27;21.10;;;;;;;8.70;56.92;103225.00;5030112;28;20123;-62
2022/03/15 05:44:08;;;;;;;32.35;23.27;;;;;;;8.70;57.12;103232.88;5029568;28;20069;-62
2022/03/15 05:46:35;;;;;;;30.20;21.88;;;;;;;8.72;56.90;103228.50;5030176;28;20481;-62
2022/03/15 05:49:01;;;;;;;35.10;22.45;;;;;;;8.72;57.13;103233.72;5029891;28;20045;-62
2022/03/15 05:51:28;;;;;;;31.10;21.10;;;;;;;8.76;56.83;103224.97;5028315;28;20413;-62
2022/03/15 05:53:54;;;;;;;32.38;22.67;;;;;;;8.77;56.73;103231.94;5030327;28;20050;-61
2022/03/15 05:56:21;;;;;;;31.98;22.73;;;;;;;8.78;56.53;103236.31;5029789;28;20500;-61
2022/03/15 05:58:48;;;;;;;31.77;21.52;;;;;;;8.80;56.56;103243.25;5029491;28;20060;-62
2022/03/15 06:01:16;;;;;;;28.70;20.45;;;;;;;8.81;56.32;103245.00;5029660;28;20448;-64
2022/03/15 06:03:44;;;;;;;10.20;7.82;;;;;;;9.12;56.02;103251.69;5028799;28;20504;-63
2022/03/15 06:06:17;;;;;;;32.75;22.33;;;;;;;9.74;56.53;103235.28;5029356;28;20448;-63
2022/03/15 06:08:51;;;;;;;34.47;21.92;;;;;;;10.34;56.50;103241.44;5027425;28;20504;-62
2022/03/15 06:11:19;;;;;;;23.45;15.77;;;;;;;10.84;55.92;103236.28;5029659;28;20099;-63
2022/03/15 06:13:46;;;;;;;25.20;16.25;;;;;;;11.30;55.49;103237.19;5029525;28;20050;-67
2022/03/15 06:16:13;;;;;;;33.45;22.65;;;;;;;10.83;56.26;103247.66;5029453;28;20084;-62
2022/03/15 06:18:39;;;;;;;31.92;23.58;;;;;;;10.37;56.81;103250.13;5029466;28;20107;-61
2022/03/15 06:21:06;;;;;;;33.10;22.55;;;;;;;10.07;57.07;103254.09;5029480;28;20053;-62
2022/03/15 06:23:33;;;;;;;33.72;23.60;;;;;;;9.87;57.04;103249.94;5029241;28;20103;-61
2022/03/15 06:25:59;;;;;;;38.58;24.73;;;;;;;9.75;56.87;103247.47;5024557;28;20053;-60
2022/03/15 06:28:26;;;;;;;31.50;23.73;;;;;;;9.63;56.85;103245.91;5027782;28;20049;-60
2022/03/15 06:30:52;;;;;;;30.95;23.35;;;;;;;9.58;56.73;103258.19;5029482;28;20053;-61
2022/03/15 06:33:19;;;;;;;34.67;24.65;;;;;;;9.53;56.64;103260.00;5029261;28;20049;-61
2022/03/15 06:35:46;;;;;;;35.95;24.55;;;;;;;9.53;56.45;103267.88;5028932;28;20456;-62
2022/03/15 06:38:12;;;;;;;37.08;25.13;;;;;;;9.51;56.46;103269.63;5024774;28;20046;-61
2022/03/15 06:40:41;;;;;;;36.28;25.08;;;;;;;9.50;56.53;103270.50;5014677;28;20121;-61
2022/03/15 06:43:12;;;;;;;41.10;25.98;;;;;;;9.51;56.35;103275.75;5023031;28;20052;-61
2022/03/15 06:45:39;;;;;;;39.92;26.30;;;;;;;9.51;56.45;103275.75;5026331;28;20049;-60
2022/03/15 06:48:05;;;;;;;42.38;26.60;;;;;;;9.52;56.35;103285.31;5017295;28;20045;-61
2022/03/15 06:50:32;;;;;;;42.10;26.80;;;;;;;9.54;56.40;103285.34;5009245;28;20108;-62
2022/03/15 06:52:59;;;;;;;37.22;25.48;;;;;;;9.56;56.48;103279.19;5009421;28;20042;-61
2022/03/15 06:55:26;;;;;;;25.90;13.38;;;;;;;10.41;55.46;103272.84;5008206;28;20050;-61
2022/03/15 06:57:53;;;;;;;24.70;15.52;;;;;;;11.08;55.67;103277.88;5009147;28;20050;-61
2022/03/15 07:00:20;;;;;;;37.47;26.02;;;;;;;10.92;56.69;103281.69;5025777;28;20131;-60
2022/03/15 07:02:46;;;;;;;44.25;27.38;;;;;;;10.61;57.41;103280.41;5028657;28;20049;-61
2022/03/15 07:05:13;;;;;;;37.30;26.35;;;;;;;10.43;57.45;103272.81;5028869;28;20050;-61
2022/03/15 07:07:40;;;;;;;41.00;27.35;;;;;;;10.33;57.46;103276.44;5028135;28;20049;-65
2022/03/15 07:10:07;;;;;;;38.33;25.13;;;;;;;10.28;57.44;103287.00;5027747;28;20938;-60
2022/03/15 07:12:34;;;;;;;38.28;26.50;;;;;;;10.25;57.50;103292.31;5028548;28;20088;-61
2022/03/15 07:15:03;;;;;;;36.85;25.65;;;;;;;10.24;57.39;103288.78;5021527;28;20041;-60
2022/03/15 07:17:30;;;;;;;35.70;26.00;;;;;;;10.24;57.36;103294.03;5023575;28;20095;-60
2022/03/15 07:19:58;;;;;;;38.08;26.23;;;;;;;10.25;57.43;103301.03;5022744;28;20465;-60
2022/03/15 07:22:25;;;;;;;34.47;25.33;;;;;;;10.22;57.34;103298.47;5019391;28;20048;-61
2022/03/15 07:24:52;;;;;;;35.70;25.20;;;;;;;10.20;57.42;103297.59;5018003;28;20109;-61
2022/03/15 07:27:20;;;;;;;38.63;26.20;;;;;;;10.20;57.54;103308.09;5027624;28;20053;-61
2022/03/15 07:29:47;;;;;;;34.67;25.45;;;;;;;10.22;57.52;103302.81;5027632;28;20471;-61
2022/03/15 07:32:14;;;;;;;38.95;25.80;;;;;;;10.22;57.68;103303.72;5025793;28;20042;-61
2022/03/15 07:34:40;;;;;;;34.40;24.40;;;;;;;10.28;57.64;103310.63;5019351;28;20050;-61
2022/03/15 07:37:07;;;;;;;34.20;24.58;;;;;;;10.29;57.69;103305.34;5025691;28;20385;-62
2022/03/15 07:39:34;;;;;;;36.78;23.90;;;;;;;10.28;57.72;103305.38;5023583;28;20045;-61
2022/03/15 07:42:00;;;;;;;35.35;24.95;;;;;;;10.36;57.45;103313.16;5027011;28;20049;-62
2022/03/15 07:44:27;;;;;;;34.35;22.75;;;;;;;10.33;57.76;103306.16;5014037;28;20042;-63
2022/03/15 07:46:53;;;;;;;31.60;23.30;;;;;;;10.33;57.54;103302.69;5008793;28;20046;-62
2022/03/15 07:49:21;;;;;;;32.13;21.52;;;;;;;10.37;57.66;103302.63;5024189;28;20052;-61
2022/03/15 07:51:49;;;;;;;36.75;23.77;;;;;;;10.51;57.25;103307.69;5023854;28;20064;-66
2022/03/15 07:54:17;;;;;;;31.10;22.25;;;;;;;10.52;57.57;103298.06;5027812;28;20073;-62
2022/03/15 07:56:43;;;;;;;33.78;22.13;;;;;;;10.53;57.37;103302.44;5027974;28;20053;-66
2022/03/15 07:59:10;;;;;;;33.30;23.40;;;;;;;10.59;57.40;103304.97;5027826;28;20064;-62
2022/03/15 08:01:37;;;;;;;30.40;22.50;;;;;;;10.56;57.47;103300.63;5027745;28;20160;-62
2022/03/15 08:04:04;;;;;;;31.45;22.27;;;;;;;10.59;57.50;103300.56;5023695;28;20140;-62
2022/03/15 08:06:31;;;;;;;32.33;22.80;;;;;;;10.61;57.44;103316.31;5017944;28;20144;-62
2022/03/15 08:08:58;;;;;;;29.55;22.70;;;;;;;10.61;57.60;103314.56;5021582;28;20041;-63
2022/03/15 08:11:26;;;;;;;33.28;23.00;;;;;;;10.70;57.46;103316.16;5028794;28;20053;-62
2022/03/15 08:13:53;;;;;;;32.53;22.45;;;;;;;10.78;57.41;103316.91;5031545;28;20049;-62
2022/03/15 08:16:22;;;;;;;30.73;22.60;;;;;;;10.85;57.16;103311.56;5031457;28;20050;-63
2022/03/15 08:18:53;;;;;;;28.20;22.27;;;;;;;10.90;57.35;103312.34;5031072;28;20049;-65
2022/03/15 08:21:25;;;;;;;32.05;22.13;;;;;;;10.87;57.39;103313.28;5029141;28;20397;-63
2022/03/15 08:23:53;;;;;;;32.35;23.60;;;;;;;10.94;57.30;103314.03;5031290;28;20053;-62
2022/03/15 08:26:20;;;;;;;32.65;24.23;;;;;;;10.98;57.36;103318.31;5031001;28;20464;-62
2022/03/15 08:28:48;;;;;;;34.33;24.40;;;;;;;11.00;57.39;103316.56;5030836;28;20138;-62
2022/03/15 08:31:15;;;;;;;32.85;23.30;;;;;;;11.08;57.25;103313.78;5029867;28;20481;-62
2022/03/15 08:33:44;;;;;;;32.10;23.80;;;;;;;11.11;57.36;103308.50;5031034;28;20053;-67
2022/03/15 08:36:12;;;;;;;31.00;22.77;;;;;;;11.20;57.32;103316.22;5030968;28;20066;-67
2022/03/15 08:38:38;;;;;;;31.48;23.33;;;;;;;11.25;57.35;103311.72;5029922;28;20042;-62
2022/03/15 08:41:05;;;;;;;29.98;22.40;;;;;;;11.32;57.15;103317.75;5021735;28;20560;-62
2022/03/15 08:43:32;;;;;;;30.10;21.90;;;;;;;11.39;57.38;103315.88;5020314;28;20514;-62
2022/03/15 08:45:59;;;;;;;33.17;22.45;;;;;;;11.38;57.42;103314.16;5019669;28;20375;-61
2022/03/15 08:48:26;;;;;;;30.25;22.85;;;;;;;11.48;57.20;103315.69;5019899;28;20046;-62
2022/03/15 08:50:54;;;;;;;27.73;21.95;;;;;;;11.53;57.34;103321.75;5019642;28;20041;-63
2022/03/15 08:53:21;;;;;;;26.45;20.75;;;;;;;11.53;57.47;103320.84;5020357;28;20042;-63
2022/03/15 08:55:47;;;;;;;29.42;21.85;;;;;;;11.59;57.46;103316.38;5027830;28;20049;-63
2022/03/15 08:58:14;;;;;;;27.98;20.63;;;;;;;11.70;57.21;103310.88;5030404;28;20096;-65
2022/03/15 09:00:41;;;;;;;24.83;18.00;;;;;;;11.83;57.02;103311.50;5029854;28;20057;-62
2022/03/15 09:03:07;;;;;;;24.35;19.67;;;;;;;11.97;56.88;103307.75;5029775;28;20456;-62
2022/03/15 09:05:34;;;;;;;24.65;18.52;;;;;;;12.06;56.74;103307.53;5029924;28;20057;-62
2022/03/15 09:08:01;;;;;;;24.50;17.95;;;;;;;12.01;56.80;103302.41;5028899;28;20049;-62
2022/03/15 09:10:27;;;;;;;27.40;18.65;;;;;;;12.09;56.76;103305.72;5019692;28;20127;-62
2022/03/15 09:12:54;;;;;;;24.45;17.88;;;;;;;12.23;56.43;103302.78;5018612;28;20518;-62
2022/03/15 09:15:22;;;;;;;23.60;16.65;;;;;;;12.37;56.04;103301.63;5029899;28;20037;-62
2022/03/15 09:17:49;;;;;;;26.02;17.92;;;;;;;12.48;55.91;103291.69;5029630;28;20132;-62
2022/03/15 09:20:25;;;;;;;21.38;15.77;;;;;;;12.45;55.86;103291.75;5026185;28;20059;-62
2022/03/15 09:22:52;;;;;;;23.35;16.95;;;;;;;12.54;55.60;103288.91;5023027;28;20042;-63
2022/03/15 09:25:19;;;;;;;21.92;16.15;;;;;;;12.46;55.82;103285.59;5030202;28;20053;-62
2022/03/15 09:27:47;;;;;;;25.27;17.08;;;;;;;12.64;55.25;103286.06;5021136;28;20116;-62
2022/03/15 09:30:14;;;;;;;21.20;16.77;;;;;;;13.01;54.22;103285.97;5009668;28;20401;-62
2022/03/15 09:32:41;;;;;;;22.58;16.85;;;;;;;12.99;54.70;103282.53;5009556;28;20057;-63
2022/03/15 09:35:09;;;;;;;22.92;16.23;;;;;;;13.14;54.26;103280.38;5009736;28;20486;-62
2022/03/15 09:37:36;;;;;;;23.20;17.25;;;;;;;13.15;54.20;103282.13;5009815;28;20053;-62
2022/03/15 09:40:09;;;;;;;22.35;17.52;;;;;;;13.02;54.26;103277.16;5009569;28;20064;-62
2022/03/15 09:42:37;;;;;;;22.20;16.95;;;;;;;13.21;53.77;103267.00;5019716;28;20037;-67
2022/03/15 09:45:04;;;;;;;22.30;15.77;;;;;;;13.37;53.58;103270.13;5019447;28;20112;-62
2022/03/15 09:47:33;;;;;;;23.13;16.83;;;;;;;13.40;53.32;103269.16;5016572;28;20046;-63
2022/03/15 09:50:03;;;;;;;23.55;17.73;;;;;;;13.52;53.03;103271.47;5009564;28;20054;-62
2022/03/15 09:52:31;;;;;;;22.35;17.75;;;;;;;13.51;53.04;103269.72;5022365;28;20052;-63
2022/03/15 09:54:58;;;;;;;22.75;17.25;;;;;;;13.79;52.44;103268.94;5028612;28;20053;-63
2022/03/15 09:57:25;;;;;;;26.45;18.35;;;;;;;13.88;52.16;103259.88;5029685;28;20049;-62
2022/03/15 09:59:57;;;;;;;23.63;17.63;;;;;;;13.99;51.89;103259.53;5020166;28;20066;-63
2022/03/15 10:02:25;;;;;;;21.67;16.95;;;;;;;14.01;51.60;103249.81;5020294;28;20104;-63
2022/03/15 10:04:52;;;;;;;23.60;17.58;;;;;;;14.26;51.07;103251.66;5019572;28;20046;-63
2022/03/15 10:07:19;;;;;;;22.58;17.55;;;;;;;14.33;50.61;103243.47;5026277;28;20104;-62
2022/03/15 10:09:46;;;;;;;21.27;17.02;;;;;;;14.39;50.32;103247.72;5044434;28;20486;-63
2022/03/15 10:12:12;;;;;;;21.52;16.48;;;;;;;14.30;50.49;103240.09;5028998;28;20050;-62
2022/03/15 10:14:49;;;;;;;22.67;17.10;;;;;;;14.22;50.21;103237.72;5028846;28;20064;-63
2022/03/15 10:17:16;;;;;;;21.70;17.05;;;;;;;14.42;49.75;103225.63;5023783;28;20501;-62
2022/03/15 10:19:53;;;;;;;27.77;16.90;;;;;;;14.58;49.57;103229.47;5021350;28;20510;-63
2022/03/15 10:22:22;;;;;;;22.80;17.65;;;;;;;14.79;49.05;103229.69;5028634;28;20053;-63
2022/03/15 10:24:49;;;;;;;21.73;17.27;;;;;;;14.87;48.91;103230.28;5029155;28;20041;-62
2022/03/15 10:27:17;;;;;;;22.13;17.27;;;;;;;14.93;48.55;103231.84;5028618;28;20049;-62
2022/03/15 10:29:47;;;;;;;10.98;9.25;;;;;;;15.12;48.13;103218.84;5026470;28;20041;-63
2022/03/15 10:32:15;;;;;;;12.68;8.68;;;;;;;15.48;47.72;103221.06;5028284;28;20216;-67
2022/03/15 10:34:43;;;;;;;18.42;13.68;;;;;;;15.65;47.47;103229.19;5027582;28;20053;-62
2022/03/15 10:37:11;;;;;;;13.23;10.00;;;;;;;15.82;47.17;103212.72;5028190;28;20057;-63
2022/03/15 10:39:39;;;;;;;14.05;11.20;;;;;;;16.05;46.63;103204.75;5028708;28;20137;-68
2022/03/15 10:42:08;;;;;;;16.85;10.88;;;;;;;16.23;46.47;103211.97;5028223;28;20099;-63
2022/03/15 10:44:38;;;;;;;27.98;17.50;;;;;;;16.32;45.86;103205.41;5028028;28;20048;-62
2022/03/15 10:47:13;;;;;;;24.92;16.98;;;;;;;16.10;46.33;103203.66;5027361;28;20077;-62
2022/03/15 10:49:56;;;;;;;22.38;16.42;;;;;;;16.10;45.89;103205.44;5027478;28;20552;-62
2022/03/15 10:52:32;;;;;;;22.73;15.00;;;;;;;16.06;45.75;103210.00;5027103;28;20058;-62
2022/03/15 10:55:15;;;;;;;22.73;16.67;;;;;;;16.12;45.58;103193.84;5028819;28;20115;-62
2022/03/15 10:57:52;;;;;;;26.83;16.05;;;;;;;16.16;45.12;103190.16;5027401;28;20096;-63
2022/03/15 11:00:22;;;;;;;23.63;16.30;;;;;;;16.19;44.90;103196.25;5028027;28;20061;-62
2022/03/15 11:02:50;;;;;;;19.92;16.15;;;;;;;16.12;44.93;103183.25;5028413;28;20532;-62
2022/03/15 11:05:38;;;;;;;20.10;15.48;;;;;;;16.14;44.47;103183.22;5028390;28;20479;-68
2022/03/15 11:08:05;;;;;;;22.20;15.68;;;;;;;16.20;44.16;103176.78;5018083;28;20560;-64
2022/03/15 11:10:32;;;;;;;22.80;15.57;;;;;;;16.09;44.63;103172.78;5017839;28;20064;-64
2022/03/15 11:13:11;;;;;;;21.05;16.30;;;;;;;16.14;44.27;103184.06;5018730;28;20052;-63
2022/03/15 11:15:43;;;;;;;21.05;15.77;;;;;;;16.22;43.88;103182.88;5026828;28;20132;-63
2022/03/15 11:18:11;;;;;;;17.80;14.57;;;;;;;16.29;43.49;103166.66;5025191;28;20111;-62
2022/03/15 11:20:41;;;;;;;18.25;15.00;;;;;;;16.38;42.93;103160.13;5027828;28;20049;-67